Tuesday, October 16, 2018, 6:55 AM EDT
Back to Local

KMDT, Harrisburg International Airport

Location: Middletown, PA, United States Lat: 40.2
Local Time: 6:55 AM EDT (10:55 GMT) Lon: -76.767
Time Zone: US/Eastern Elev: 308 ft

Show me the last for .
Show Decoded

2018-10-16 05:56 METAR KMDT 160956Z 32010KT 10SM FEW050 SCT250 11/02 A3016 RMK AO2 SLP215
                 T01060017 =
2018-10-16 04:56 METAR KMDT 160856Z 33010G19KT 10SM FEW050 BKN250 11/02 A3014 RMK AO2 SLP209
                 T01110017 53017 =
2018-10-16 03:56 METAR KMDT 160756Z 33010KT 10SM OVC250 12/02 A3012 RMK AO2 SLP201 T01170022 =
2018-10-16 02:56 METAR KMDT 160656Z 33013G18KT 10SM FEW040 OVC250 12/02 A3011 RMK AO2 SLP197
                 T01220022 =
2018-10-16 01:56 METAR KMDT 160556Z 33013G25KT 10SM SCT040 OVC250 13/04 A3009 RMK AO2 SLP191
                 60000 T01330044 10183 20133 51034 =
2018-10-16 00:56 METAR KMDT 160456Z 32014G26KT 10SM BKN039 BKN100 14/07 A3007 RMK AO2 PK WND
                 32026/0451 SLP184 T01440067 401890117 =
2018-10-15 23:56 METAR KMDT 160356Z 30013G22KT 10SM FEW050 SCT070 OVC090 16/10 A3004 RMK AO2
                 SLP171 T01560100 =
2018-10-15 22:56 METAR KMDT 160256Z 32014G22KT 10SM FEW033 BKN041 OVC060 17/12 A2999 RMK AO2
                 SLP157 60000 T01670117 51030 =
2018-10-15 21:56 METAR KMDT 160156Z 31014KT 10SM SCT035 OVC045 18/14 A2997 RMK AO2 SLP148
                 T01780139 =
2018-10-15 21:41 METAR KMDT 160141Z 31009KT 10SM OVC034 18/16 A2996 RMK AO2 T01780156 =
2018-10-15 20:56 METAR KMDT 160056Z 33004KT 10SM FEW015 OVC027 18/16 A2993 RMK AO2 RAB30E43
                 SLP136 P0000 T01780161 =
2018-10-15 20:44 METAR KMDT 160044Z 29006KT 10SM FEW014 BKN025 OVC040 18/16 A2994 RMK AO2
                 RAB30E43 P0000 T01780161 =
2018-10-15 19:56 METAR KMDT 152356Z 22013G20KT 10SM BKN070 OVC110 18/16 A2990 RMK AO2 SLP126
                 60001 T01830161 10189 20167 55005 =
2018-10-15 18:56 METAR KMDT 152256Z 19009G17KT 10SM FEW016 BKN070 OVC110 18/16 A2989 RMK AO2
                 SLP122 T01830161 =
2018-10-15 17:56 METAR KMDT 152156Z 21011G17KT 10SM SCT016 BKN060 OVC110 18/16 A2991 RMK AO2
                 SLP128 T01830161 =
2018-10-15 17:25 METAR KMDT 152125Z 20009G16KT 170V250 10SM SCT014 BKN045 BKN110 18/16 A2992 RMK
                 AO2 T01830156 =
2018-10-15 16:56 METAR KMDT 152056Z VRB06KT 10SM BKN014 BKN110 18/16 A2992 RMK AO2 RAB04E24
                 SLP131 P0000 60001 T01780156 56019 =
2018-10-15 15:56 METAR KMDT 151956Z 21008G15KT 10SM BKN020 BKN070 OVC110 17/15 A2993 RMK AO2
                 RAE18 SLP134 P0000 T01720150 =
2018-10-15 14:56 METAR KMDT 151856Z 20011G17KT 7SM -RA BKN015 BKN020 OVC070 17/14 A2995 RMK AO2
                 SLP142 P0001 T01670144 =
2018-10-15 13:56 METAR KMDT 151756Z 03003KT 10SM -RA BKN015 OVC020 17/14 A2997 RMK AO2 RAB55
                 SLP151 P0000 60000 T01670139 10178 20139 56021 =
2018-10-15 13:10 METAR KMDT 151710Z 03003KT 10SM BKN015 OVC020 17/14 A2999 RMK AO2 T01720139 =
2018-10-15 13:03 METAR KMDT 151703Z 03003KT 10SM SCT014 17/14 A2999 RMK AO2 T01720139 =
2018-10-15 12:56 METAR KMDT 151656Z VRB03KT 10SM BKN014 OVC020 17/14 A2999 RMK AO2 SLP157
                 T01670139 =
2018-10-15 12:21 METAR KMDT 151621Z VRB04KT 10SM BKN014 OVC020 17/14 A3001 RMK AO2 T01670139 =
2018-10-15 12:07 METAR KMDT 151607Z 21008KT 10SM BKN015 17/14 A3001 RMK AO2 T01720139 =
2018-10-15 11:56 METAR KMDT 151556Z 20009KT 180V250 10SM BKN014 17/14 A3000 RMK AO2 SLP160
                 T01720139 =
2018-10-15 11:16 METAR KMDT 151516Z 21006KT 10SM FEW012 SCT045 BKN110 18/14 A3002 RMK AO2
                 T01780139 =
2018-10-15 10:56 METAR KMDT 151456Z 22011G16KT 10SM OVC010 17/14 A3004 RMK AO2 SLP173 60000
                 T01670139 58012 =
2018-10-15 09:56 METAR KMDT 151356Z 20005KT 10SM OVC010 15/13 A3004 RMK AO2 SLP174 T01500133 =
2018-10-15 08:56 METAR KMDT 151256Z VRB06KT 10SM OVC010 15/13 A3007 RMK AO2 RAB22E32 SLP183 P0000
                 T01500128 =
2018-10-15 07:56 METAR KMDT 151156Z 12003KT 5SM BR OVC011 14/12 A3007 RMK AO2 SLP184 60002 70004
                 T01390122 10139 20117 55008 =
2018-10-15 06:56 METAR KMDT 151056Z 11003KT 6SM BR OVC011 13/12 A3007 RMK AO2 SLP184 T01330122 =

Support USWX by starting your Amazon purchase here.